sensor_id;sensor_type;location;lat;lon;timestamp;P1;durP1;ratioP1;P2;durP2;ratioP2
24259;SDS011;12384;48.112;18.418;2023-02-22T00:02:05;12.10;;;11.30;;
24259;SDS011;12384;48.112;18.418;2023-02-22T00:04:52;12.80;;;12.00;;
24259;SDS011;12384;48.112;18.418;2023-02-22T00:07:21;13.00;;;12.10;;
24259;SDS011;12384;48.112;18.418;2023-02-22T00:09:55;12.03;;;11.33;;
24259;SDS011;12384;48.112;18.418;2023-02-22T00:12:26;12.13;;;11.33;;
24259;SDS011;12384;48.112;18.418;2023-02-22T00:14:55;12.73;;;11.90;;
24259;SDS011;12384;48.112;18.418;2023-02-22T00:17:24;12.37;;;11.67;;
24259;SDS011;12384;48.112;18.418;2023-02-22T00:19:56;12.73;;;11.93;;
24259;SDS011;12384;48.112;18.418;2023-02-22T00:22:24;13.00;;;12.10;;
24259;SDS011;12384;48.112;18.418;2023-02-22T00:24:52;13.40;;;12.30;;
24259;SDS011;12384;48.112;18.418;2023-02-22T00:27:21;13.23;;;12.33;;
24259;SDS011;12384;48.112;18.418;2023-02-22T00:29:49;13.60;;;12.60;;
24259;SDS011;12384;48.112;18.418;2023-02-22T00:32:17;13.53;;;12.43;;
24259;SDS011;12384;48.112;18.418;2023-02-22T00:34:47;13.27;;;12.37;;
24259;SDS011;12384;48.112;18.418;2023-02-22T00:37:27;13.73;;;12.83;;
24259;SDS011;12384;48.112;18.418;2023-02-22T00:39:57;13.83;;;12.83;;
24259;SDS011;12384;48.112;18.418;2023-02-22T00:42:25;12.77;;;11.97;;
24259;SDS011;12384;48.112;18.418;2023-02-22T00:44:54;12.60;;;11.70;;
24259;SDS011;12384;48.112;18.418;2023-02-22T00:47:22;12.93;;;12.00;;
24259;SDS011;12384;48.112;18.418;2023-02-22T00:49:51;12.53;;;11.70;;
24259;SDS011;12384;48.112;18.418;2023-02-22T00:52:20;11.90;;;11.13;;
24259;SDS011;12384;48.112;18.418;2023-02-22T00:54:50;12.60;;;11.70;;
24259;SDS011;12384;48.112;18.418;2023-02-22T00:57:18;12.77;;;11.87;;
24259;SDS011;12384;48.112;18.418;2023-02-22T00:59:47;13.40;;;12.50;;
24259;SDS011;12384;48.112;18.418;2023-02-22T01:02:15;11.83;;;11.10;;
24259;SDS011;12384;48.112;18.418;2023-02-22T01:04:46;12.90;;;12.10;;
24259;SDS011;12384;48.112;18.418;2023-02-22T01:07:14;12.47;;;11.73;;
24259;SDS011;12384;48.112;18.418;2023-02-22T01:09:43;11.70;;;10.97;;
24259;SDS011;12384;48.112;18.418;2023-02-22T01:12:12;11.63;;;10.83;;
24259;SDS011;12384;48.112;18.418;2023-02-22T01:14:41;11.77;;;10.97;;
24259;SDS011;12384;48.112;18.418;2023-02-22T01:17:10;12.70;;;11.90;;
24259;SDS011;12384;48.112;18.418;2023-02-22T01:19:38;12.07;;;11.27;;
24259;SDS011;12384;48.112;18.418;2023-02-22T01:22:08;12.00;;;11.30;;
24259;SDS011;12384;48.112;18.418;2023-02-22T01:24:36;12.53;;;11.63;;
24259;SDS011;12384;48.112;18.418;2023-02-22T01:27:05;12.57;;;11.77;;
24259;SDS011;12384;48.112;18.418;2023-02-22T01:29:34;12.50;;;11.70;;
24259;SDS011;12384;48.112;18.418;2023-02-22T01:32:05;12.67;;;11.87;;
24259;SDS011;12384;48.112;18.418;2023-02-22T01:34:34;12.67;;;11.77;;
24259;SDS011;12384;48.112;18.418;2023-02-22T01:37:02;12.73;;;11.80;;
24259;SDS011;12384;48.112;18.418;2023-02-22T01:39:32;12.73;;;11.93;;
24259;SDS011;12384;48.112;18.418;2023-02-22T01:42:00;12.40;;;11.60;;
24259;SDS011;12384;48.112;18.418;2023-02-22T01:44:29;12.77;;;11.87;;
24259;SDS011;12384;48.112;18.418;2023-02-22T01:47:01;12.77;;;11.87;;
24259;SDS011;12384;48.112;18.418;2023-02-22T01:49:31;12.93;;;12.03;;
24259;SDS011;12384;48.112;18.418;2023-02-22T01:52:05;13.47;;;12.47;;
24259;SDS011;12384;48.112;18.418;2023-02-22T01:54:36;13.60;;;12.77;;
24259;SDS011;12384;48.112;18.418;2023-02-22T01:57:11;13.13;;;12.23;;
24259;SDS011;12384;48.112;18.418;2023-02-22T01:59:43;13.30;;;12.40;;
24259;SDS011;12384;48.112;18.418;2023-02-22T02:02:16;13.60;;;12.73;;
24259;SDS011;12384;48.112;18.418;2023-02-22T02:04:47;13.23;;;12.33;;
24259;SDS011;12384;48.112;18.418;2023-02-22T02:07:16;12.63;;;11.83;;
24259;SDS011;12384;48.112;18.418;2023-02-22T02:09:50;13.00;;;12.00;;
24259;SDS011;12384;48.112;18.418;2023-02-22T02:12:23;12.53;;;11.73;;
24259;SDS011;12384;48.112;18.418;2023-02-22T02:17:45;13.50;;;12.50;;
24259;SDS011;12384;48.112;18.418;2023-02-22T02:20:16;12.97;;;12.07;;
24259;SDS011;12384;48.112;18.418;2023-02-22T02:22:51;13.30;;;12.40;;
24259;SDS011;12384;48.112;18.418;2023-02-22T02:28:48;12.47;;;11.67;;
24259;SDS011;12384;48.112;18.418;2023-02-22T02:31:50;13.20;;;12.30;;
24259;SDS011;12384;48.112;18.418;2023-02-22T02:34:33;12.43;;;11.63;;
24259;SDS011;12384;48.112;18.418;2023-02-22T02:37:08;12.13;;;11.33;;
24259;SDS011;12384;48.112;18.418;2023-02-22T02:39:44;12.20;;;11.40;;
24259;SDS011;12384;48.112;18.418;2023-02-22T02:42:20;12.53;;;11.73;;
24259;SDS011;12384;48.112;18.418;2023-02-22T02:44:53;12.40;;;11.60;;
24259;SDS011;12384;48.112;18.418;2023-02-22T02:47:30;12.17;;;11.37;;
24259;SDS011;12384;48.112;18.418;2023-02-22T02:50:04;12.30;;;11.40;;
24259;SDS011;12384;48.112;18.418;2023-02-22T02:52:36;11.70;;;11.00;;
24259;SDS011;12384;48.112;18.418;2023-02-22T02:55:07;12.17;;;11.33;;
24259;SDS011;12384;48.112;18.418;2023-02-22T02:57:40;11.70;;;10.90;;
24259;SDS011;12384;48.112;18.418;2023-02-22T03:00:08;12.23;;;11.43;;
24259;SDS011;12384;48.112;18.418;2023-02-22T03:02:54;12.37;;;11.57;;
24259;SDS011;12384;48.112;18.418;2023-02-22T03:05:44;11.53;;;10.73;;
24259;SDS011;12384;48.112;18.418;2023-02-22T03:08:40;10.07;;;9.37;;
24259;SDS011;12384;48.112;18.418;2023-02-22T03:11:12;11.20;;;10.50;;
24259;SDS011;12384;48.112;18.418;2023-02-22T03:13:49;11.40;;;10.70;;
24259;SDS011;12384;48.112;18.418;2023-02-22T03:16:26;11.47;;;10.70;;
24259;SDS011;12384;48.112;18.418;2023-02-22T03:19:04;12.90;;;12.00;;
24259;SDS011;12384;48.112;18.418;2023-02-22T03:21:39;11.23;;;10.43;;
24259;SDS011;12384;48.112;18.418;2023-02-22T03:24:14;11.40;;;10.70;;
24259;SDS011;12384;48.112;18.418;2023-02-22T03:26:50;11.93;;;11.20;;
24259;SDS011;12384;48.112;18.418;2023-02-22T03:29:23;11.50;;;10.80;;
24259;SDS011;12384;48.112;18.418;2023-02-22T03:31:55;11.30;;;10.60;;
24259;SDS011;12384;48.112;18.418;2023-02-22T03:34:34;12.13;;;11.43;;
24259;SDS011;12384;48.112;18.418;2023-02-22T03:37:10;11.77;;;10.97;;
24259;SDS011;12384;48.112;18.418;2023-02-22T03:39:44;12.03;;;11.30;;
24259;SDS011;12384;48.112;18.418;2023-02-22T03:42:17;12.07;;;11.37;;
24259;SDS011;12384;48.112;18.418;2023-02-22T03:44:49;11.77;;;11.00;;
24259;SDS011;12384;48.112;18.418;2023-02-22T03:47:24;12.07;;;11.27;;
24259;SDS011;12384;48.112;18.418;2023-02-22T03:49:59;11.60;;;10.90;;
24259;SDS011;12384;48.112;18.418;2023-02-22T03:52:34;12.13;;;11.43;;
24259;SDS011;12384;48.112;18.418;2023-02-22T03:55:09;12.60;;;11.80;;
24259;SDS011;12384;48.112;18.418;2023-02-22T03:57:39;12.47;;;11.67;;
24259;SDS011;12384;48.112;18.418;2023-02-22T04:00:11;12.33;;;11.47;;
24259;SDS011;12384;48.112;18.418;2023-02-22T04:02:44;13.83;;;12.77;;
24259;SDS011;12384;48.112;18.418;2023-02-22T04:05:18;13.53;;;12.43;;
24259;SDS011;12384;48.112;18.418;2023-02-22T04:07:47;13.07;;;12.07;;
24259;SDS011;12384;48.112;18.418;2023-02-22T04:10:16;12.27;;;11.47;;
24259;SDS011;12384;48.112;18.418;2023-02-22T04:12:44;13.23;;;12.33;;
24259;SDS011;12384;48.112;18.418;2023-02-22T04:15:14;13.17;;;12.27;;
24259;SDS011;12384;48.112;18.418;2023-02-22T04:17:44;12.37;;;11.47;;
24259;SDS011;12384;48.112;18.418;2023-02-22T04:20:14;13.03;;;12.13;;
24259;SDS011;12384;48.112;18.418;2023-02-22T04:22:59;12.90;;;12.00;;
24259;SDS011;12384;48.112;18.418;2023-02-22T04:25:28;12.90;;;12.00;;
24259;SDS011;12384;48.112;18.418;2023-02-22T04:28:09;12.83;;;11.83;;
24259;SDS011;12384;48.112;18.418;2023-02-22T04:30:49;11.97;;;11.07;;
24259;SDS011;12384;48.112;18.418;2023-02-22T04:33:18;11.67;;;10.87;;
24259;SDS011;12384;48.112;18.418;2023-02-22T04:35:47;11.77;;;11.07;;
24259;SDS011;12384;48.112;18.418;2023-02-22T04:38:18;11.67;;;10.87;;
24259;SDS011;12384;48.112;18.418;2023-02-22T04:40:47;11.43;;;10.73;;
24259;SDS011;12384;48.112;18.418;2023-02-22T04:43:15;10.77;;;10.13;;
24259;SDS011;12384;48.112;18.418;2023-02-22T04:45:45;12.00;;;11.10;;
24259;SDS011;12384;48.112;18.418;2023-02-22T04:48:13;11.60;;;10.90;;
24259;SDS011;12384;48.112;18.418;2023-02-22T04:50:41;11.47;;;10.77;;
24259;SDS011;12384;48.112;18.418;2023-02-22T04:53:10;11.30;;;10.60;;
24259;SDS011;12384;48.112;18.418;2023-02-22T04:55:39;11.97;;;11.20;;
24259;SDS011;12384;48.112;18.418;2023-02-22T04:58:08;11.77;;;11.07;;
24259;SDS011;12384;48.112;18.418;2023-02-22T05:00:36;11.60;;;10.90;;
24259;SDS011;12384;48.112;18.418;2023-02-22T05:03:06;12.07;;;11.27;;
24259;SDS011;12384;48.112;18.418;2023-02-22T05:05:34;11.23;;;10.53;;
24259;SDS011;12384;48.112;18.418;2023-02-22T05:08:03;11.67;;;10.87;;
24259;SDS011;12384;48.112;18.418;2023-02-22T05:10:31;11.83;;;11.07;;
24259;SDS011;12384;48.112;18.418;2023-02-22T05:13:01;11.73;;;11.03;;
24259;SDS011;12384;48.112;18.418;2023-02-22T05:15:31;12.30;;;11.50;;
24259;SDS011;12384;48.112;18.418;2023-02-22T05:18:00;12.10;;;11.30;;
24259;SDS011;12384;48.112;18.418;2023-02-22T05:20:29;12.30;;;11.50;;
24259;SDS011;12384;48.112;18.418;2023-02-22T05:23:00;12.57;;;11.67;;
24259;SDS011;12384;48.112;18.418;2023-02-22T05:25:29;12.83;;;12.00;;
24259;SDS011;12384;48.112;18.418;2023-02-22T05:27:58;12.73;;;11.93;;
24259;SDS011;12384;48.112;18.418;2023-02-22T05:30:30;13.83;;;12.83;;
24259;SDS011;12384;48.112;18.418;2023-02-22T05:33:00;13.53;;;12.63;;
24259;SDS011;12384;48.112;18.418;2023-02-22T05:35:29;12.23;;;11.43;;
24259;SDS011;12384;48.112;18.418;2023-02-22T05:37:57;13.17;;;12.37;;
24259;SDS011;12384;48.112;18.418;2023-02-22T05:40:28;13.87;;;12.97;;
24259;SDS011;12384;48.112;18.418;2023-02-22T05:42:58;12.97;;;12.17;;
24259;SDS011;12384;48.112;18.418;2023-02-22T05:45:29;14.27;;;13.27;;
24259;SDS011;12384;48.112;18.418;2023-02-22T05:47:58;13.67;;;12.87;;
24259;SDS011;12384;48.112;18.418;2023-02-22T05:50:27;13.03;;;12.20;;
24259;SDS011;12384;48.112;18.418;2023-02-22T05:52:55;12.63;;;11.83;;
24259;SDS011;12384;48.112;18.418;2023-02-22T05:55:24;11.33;;;10.63;;
24259;SDS011;12384;48.112;18.418;2023-02-22T05:57:52;12.97;;;12.17;;
24259;SDS011;12384;48.112;18.418;2023-02-22T06:00:21;11.73;;;11.03;;
24259;SDS011;12384;48.112;18.418;2023-02-22T06:02:54;11.67;;;10.87;;
24259;SDS011;12384;48.112;18.418;2023-02-22T06:05:22;10.90;;;10.20;;
24259;SDS011;12384;48.112;18.418;2023-02-22T06:07:51;11.87;;;11.07;;
24259;SDS011;12384;48.112;18.418;2023-02-22T06:10:20;11.93;;;11.07;;
24259;SDS011;12384;48.112;18.418;2023-02-22T06:12:49;12.13;;;11.33;;
24259;SDS011;12384;48.112;18.418;2023-02-22T06:15:18;11.27;;;10.57;;
24259;SDS011;12384;48.112;18.418;2023-02-22T06:17:48;10.90;;;10.20;;
24259;SDS011;12384;48.112;18.418;2023-02-22T06:20:20;10.73;;;10.03;;
24259;SDS011;12384;48.112;18.418;2023-02-22T06:22:50;11.07;;;10.27;;
24259;SDS011;12384;48.112;18.418;2023-02-22T06:25:20;10.63;;;9.93;;
24259;SDS011;12384;48.112;18.418;2023-02-22T06:27:50;10.13;;;9.43;;
24259;SDS011;12384;48.112;18.418;2023-02-22T06:30:20;10.70;;;10.00;;
24259;SDS011;12384;48.112;18.418;2023-02-22T06:32:49;10.73;;;9.93;;
24259;SDS011;12384;48.112;18.418;2023-02-22T06:35:19;10.63;;;9.93;;
24259;SDS011;12384;48.112;18.418;2023-02-22T06:37:48;10.70;;;10.00;;
24259;SDS011;12384;48.112;18.418;2023-02-22T06:40:16;12.00;;;11.20;;
24259;SDS011;12384;48.112;18.418;2023-02-22T06:42:46;12.13;;;11.27;;
24259;SDS011;12384;48.112;18.418;2023-02-22T06:45:15;11.13;;;10.43;;
24259;SDS011;12384;48.112;18.418;2023-02-22T06:47:44;11.80;;;11.00;;
24259;SDS011;12384;48.112;18.418;2023-02-22T06:50:17;11.67;;;10.70;;
24259;SDS011;12384;48.112;18.418;2023-02-22T06:52:49;11.80;;;11.00;;
24259;SDS011;12384;48.112;18.418;2023-02-22T06:55:19;11.87;;;10.97;;
24259;SDS011;12384;48.112;18.418;2023-02-22T06:57:48;11.17;;;10.47;;
24259;SDS011;12384;48.112;18.418;2023-02-22T07:00:17;11.07;;;10.37;;
24259;SDS011;12384;48.112;18.418;2023-02-22T07:02:47;12.40;;;11.60;;
24259;SDS011;12384;48.112;18.418;2023-02-22T07:05:17;12.10;;;11.20;;
24259;SDS011;12384;48.112;18.418;2023-02-22T07:07:49;12.17;;;11.37;;
24259;SDS011;12384;48.112;18.418;2023-02-22T07:10:20;12.90;;;12.00;;
24259;SDS011;12384;48.112;18.418;2023-02-22T07:12:51;13.00;;;12.10;;
24259;SDS011;12384;48.112;18.418;2023-02-22T07:15:21;12.57;;;11.53;;
24259;SDS011;12384;48.112;18.418;2023-02-22T07:17:51;12.80;;;11.90;;
24259;SDS011;12384;48.112;18.418;2023-02-22T07:20:20;13.17;;;12.27;;
24259;SDS011;12384;48.112;18.418;2023-02-22T07:22:51;13.13;;;12.33;;
24259;SDS011;12384;48.112;18.418;2023-02-22T07:25:20;13.10;;;12.13;;
24259;SDS011;12384;48.112;18.418;2023-02-22T07:27:50;13.07;;;12.20;;
24259;SDS011;12384;48.112;18.418;2023-02-22T07:30:19;11.77;;;11.03;;
24259;SDS011;12384;48.112;18.418;2023-02-22T07:32:52;12.87;;;11.97;;
24259;SDS011;12384;48.112;18.418;2023-02-22T07:35:24;12.63;;;11.77;;
24259;SDS011;12384;48.112;18.418;2023-02-22T07:37:56;12.27;;;11.47;;
24259;SDS011;12384;48.112;18.418;2023-02-22T07:40:25;12.10;;;11.30;;
24259;SDS011;12384;48.112;18.418;2023-02-22T07:42:54;12.53;;;11.67;;
24259;SDS011;12384;48.112;18.418;2023-02-22T07:45:25;13.20;;;12.30;;
24259;SDS011;12384;48.112;18.418;2023-02-22T07:47:55;12.70;;;11.90;;
24259;SDS011;12384;48.112;18.418;2023-02-22T07:50:24;13.43;;;12.53;;
24259;SDS011;12384;48.112;18.418;2023-02-22T07:52:59;13.63;;;12.57;;
24259;SDS011;12384;48.112;18.418;2023-02-22T07:55:29;13.77;;;12.87;;
24259;SDS011;12384;48.112;18.418;2023-02-22T07:57:59;13.60;;;12.63;;
24259;SDS011;12384;48.112;18.418;2023-02-22T08:00:30;13.30;;;12.27;;
24259;SDS011;12384;48.112;18.418;2023-02-22T08:03:00;13.60;;;12.67;;
24259;SDS011;12384;48.112;18.418;2023-02-22T08:05:29;14.33;;;13.33;;
24259;SDS011;12384;48.112;18.418;2023-02-22T08:07:59;13.27;;;12.37;;
24259;SDS011;12384;48.112;18.418;2023-02-22T08:10:28;14.47;;;13.37;;
24259;SDS011;12384;48.112;18.418;2023-02-22T08:12:57;14.07;;;13.17;;
24259;SDS011;12384;48.112;18.418;2023-02-22T08:15:27;14.27;;;13.17;;
24259;SDS011;12384;48.112;18.418;2023-02-22T08:17:57;14.10;;;13.07;;
24259;SDS011;12384;48.112;18.418;2023-02-22T08:20:27;13.93;;;12.93;;
24259;SDS011;12384;48.112;18.418;2023-02-22T08:22:57;14.97;;;13.87;;
24259;SDS011;12384;48.112;18.418;2023-02-22T08:25:27;13.97;;;12.97;;
24259;SDS011;12384;48.112;18.418;2023-02-22T08:27:57;14.10;;;13.00;;
24259;SDS011;12384;48.112;18.418;2023-02-22T08:30:27;13.20;;;12.30;;
24259;SDS011;12384;48.112;18.418;2023-02-22T08:32:57;13.63;;;12.77;;
24259;SDS011;12384;48.112;18.418;2023-02-22T08:35:28;13.60;;;12.70;;
24259;SDS011;12384;48.112;18.418;2023-02-22T08:37:59;14.23;;;13.23;;
24259;SDS011;12384;48.112;18.418;2023-02-22T08:40:31;13.37;;;12.47;;
24259;SDS011;12384;48.112;18.418;2023-02-22T08:43:02;12.67;;;11.77;;
24259;SDS011;12384;48.112;18.418;2023-02-22T08:45:32;12.87;;;12.07;;
24259;SDS011;12384;48.112;18.418;2023-02-22T08:48:00;13.27;;;12.37;;
24259;SDS011;12384;48.112;18.418;2023-02-22T08:50:30;12.07;;;11.27;;
24259;SDS011;12384;48.112;18.418;2023-02-22T08:53:01;12.27;;;11.37;;
24259;SDS011;12384;48.112;18.418;2023-02-22T08:55:33;12.23;;;11.43;;
24259;SDS011;12384;48.112;18.418;2023-02-22T08:58:04;11.90;;;11.10;;
24259;SDS011;12384;48.112;18.418;2023-02-22T09:00:35;11.43;;;10.73;;
24259;SDS011;12384;48.112;18.418;2023-02-22T09:03:05;12.23;;;11.43;;
24259;SDS011;12384;48.112;18.418;2023-02-22T09:05:36;11.13;;;10.43;;
24259;SDS011;12384;48.112;18.418;2023-02-22T09:08:04;12.73;;;11.93;;
24259;SDS011;12384;48.112;18.418;2023-02-22T09:10:34;13.30;;;12.50;;
24259;SDS011;12384;48.112;18.418;2023-02-22T09:13:03;14.13;;;13.23;;
24259;SDS011;12384;48.112;18.418;2023-02-22T09:15:32;14.07;;;13.07;;
24259;SDS011;12384;48.112;18.418;2023-02-22T09:18:02;15.23;;;14.13;;
24259;SDS011;12384;48.112;18.418;2023-02-22T09:20:33;13.00;;;12.20;;
24259;SDS011;12384;48.112;18.418;2023-02-22T09:23:02;12.60;;;11.80;;
24259;SDS011;12384;48.112;18.418;2023-02-22T09:25:34;12.80;;;12.00;;
24259;SDS011;12384;48.112;18.418;2023-02-22T09:28:04;12.67;;;11.87;;
24259;SDS011;12384;48.112;18.418;2023-02-22T09:30:33;13.10;;;12.20;;
24259;SDS011;12384;48.112;18.418;2023-02-22T09:33:04;13.27;;;12.37;;
24259;SDS011;12384;48.112;18.418;2023-02-22T09:35:35;13.60;;;12.70;;
24259;SDS011;12384;48.112;18.418;2023-02-22T09:38:08;13.57;;;12.67;;
24259;SDS011;12384;48.112;18.418;2023-02-22T09:40:40;12.60;;;11.80;;
24259;SDS011;12384;48.112;18.418;2023-02-22T09:43:28;11.40;;;10.70;;
24259;SDS011;12384;48.112;18.418;2023-02-22T09:46:09;11.37;;;10.67;;
24259;SDS011;12384;48.112;18.418;2023-02-22T09:48:59;10.53;;;9.87;;
24259;SDS011;12384;48.112;18.418;2023-02-22T09:51:33;10.93;;;10.23;;
24259;SDS011;12384;48.112;18.418;2023-02-22T09:54:10;11.00;;;10.30;;
24259;SDS011;12384;48.112;18.418;2023-02-22T09:56:47;11.57;;;10.80;;
24259;SDS011;12384;48.112;18.418;2023-02-22T09:59:21;11.53;;;10.77;;
24259;SDS011;12384;48.112;18.418;2023-02-22T10:01:54;11.37;;;10.67;;
24259;SDS011;12384;48.112;18.418;2023-02-22T10:04:31;10.53;;;9.93;;
24259;SDS011;12384;48.112;18.418;2023-02-22T10:07:14;11.00;;;10.30;;
24259;SDS011;12384;48.112;18.418;2023-02-22T10:09:46;10.20;;;9.60;;
24259;SDS011;12384;48.112;18.418;2023-02-22T10:12:22;11.50;;;10.70;;
24259;SDS011;12384;48.112;18.418;2023-02-22T10:15:07;11.00;;;10.30;;
24259;SDS011;12384;48.112;18.418;2023-02-22T10:17:56;11.13;;;10.40;;
24259;SDS011;12384;48.112;18.418;2023-02-22T10:20:40;10.07;;;9.40;;
24259;SDS011;12384;48.112;18.418;2023-02-22T10:23:18;11.00;;;10.10;;
24259;SDS011;12384;48.112;18.418;2023-02-22T10:25:53;9.53;;;9.00;;
24259;SDS011;12384;48.112;18.418;2023-02-22T10:28:35;9.87;;;9.27;;
24259;SDS011;12384;48.112;18.418;2023-02-22T10:31:07;9.67;;;9.17;;
24259;SDS011;12384;48.112;18.418;2023-02-22T10:33:41;9.87;;;9.27;;
24259;SDS011;12384;48.112;18.418;2023-02-22T10:36:15;10.17;;;9.57;;
24259;SDS011;12384;48.112;18.418;2023-02-22T10:38:47;9.47;;;8.97;;
24259;SDS011;12384;48.112;18.418;2023-02-22T10:41:22;9.40;;;8.90;;
24259;SDS011;12384;48.112;18.418;2023-02-22T10:43:57;9.33;;;8.83;;
24259;SDS011;12384;48.112;18.418;2023-02-22T10:46:26;9.57;;;9.07;;
24259;SDS011;12384;48.112;18.418;2023-02-22T10:48:56;9.30;;;8.57;;
24259;SDS011;12384;48.112;18.418;2023-02-22T10:51:29;9.10;;;8.60;;
24259;SDS011;12384;48.112;18.418;2023-02-22T10:54:01;8.97;;;8.37;;
24259;SDS011;12384;48.112;18.418;2023-02-22T10:56:50;9.37;;;8.80;;
24259;SDS011;12384;48.112;18.418;2023-02-22T10:59:29;8.90;;;8.40;;
24259;SDS011;12384;48.112;18.418;2023-02-22T11:02:06;8.67;;;8.10;;
24259;SDS011;12384;48.112;18.418;2023-02-22T11:04:45;9.70;;;9.10;;
24259;SDS011;12384;48.112;18.418;2023-02-22T11:07:17;9.40;;;8.90;;
24259;SDS011;12384;48.112;18.418;2023-02-22T11:09:50;9.80;;;9.23;;
24259;SDS011;12384;48.112;18.418;2023-02-22T11:12:25;9.40;;;8.90;;
24259;SDS011;12384;48.112;18.418;2023-02-22T11:14:57;10.27;;;9.67;;
24259;SDS011;12384;48.112;18.418;2023-02-22T11:17:52;10.60;;;10.00;;
24259;SDS011;12384;48.112;18.418;2023-02-22T11:20:23;10.53;;;9.93;;
24259;SDS011;12384;48.112;18.418;2023-02-22T11:22:54;10.70;;;10.00;;
24259;SDS011;12384;48.112;18.418;2023-02-22T11:25:27;11.47;;;10.77;;
24259;SDS011;12384;48.112;18.418;2023-02-22T11:28:05;11.70;;;10.90;;
24259;SDS011;12384;48.112;18.418;2023-02-22T11:30:37;10.13;;;9.53;;
24259;SDS011;12384;48.112;18.418;2023-02-22T11:33:09;10.03;;;9.43;;
24259;SDS011;12384;48.112;18.418;2023-02-22T11:35:51;10.87;;;10.27;;
24259;SDS011;12384;48.112;18.418;2023-02-22T11:38:21;10.17;;;9.57;;
24259;SDS011;12384;48.112;18.418;2023-02-22T11:41:06;9.57;;;9.07;;
24259;SDS011;12384;48.112;18.418;2023-02-22T11:43:40;9.07;;;8.47;;
24259;SDS011;12384;48.112;18.418;2023-02-22T11:46:12;9.30;;;8.70;;
24259;SDS011;12384;48.112;18.418;2023-02-22T11:48:45;9.13;;;8.63;;
24259;SDS011;12384;48.112;18.418;2023-02-22T11:51:36;9.17;;;8.67;;
24259;SDS011;12384;48.112;18.418;2023-02-22T11:54:16;9.83;;;9.27;;
24259;SDS011;12384;48.112;18.418;2023-02-22T11:56:57;10.57;;;9.97;;
24259;SDS011;12384;48.112;18.418;2023-02-22T11:59:35;10.10;;;9.60;;
24259;SDS011;12384;48.112;18.418;2023-02-22T12:02:19;10.53;;;9.93;;
24259;SDS011;12384;48.112;18.418;2023-02-22T12:05:04;10.40;;;9.80;;
24259;SDS011;12384;48.112;18.418;2023-02-22T12:07:48;9.70;;;9.20;;
24259;SDS011;12384;48.112;18.418;2023-02-22T12:10:31;9.87;;;9.37;;
24259;SDS011;12384;48.112;18.418;2023-02-22T12:13:13;9.97;;;9.47;;
24259;SDS011;12384;48.112;18.418;2023-02-22T12:15:53;10.40;;;9.90;;
24259;SDS011;12384;48.112;18.418;2023-02-22T12:18:30;10.37;;;9.77;;
24259;SDS011;12384;48.112;18.418;2023-02-22T12:21:05;10.67;;;10.07;;
24259;SDS011;12384;48.112;18.418;2023-02-22T12:23:40;9.80;;;9.30;;
24259;SDS011;12384;48.112;18.418;2023-02-22T12:26:13;10.13;;;9.63;;
24259;SDS011;12384;48.112;18.418;2023-02-22T12:28:46;10.77;;;10.07;;
24259;SDS011;12384;48.112;18.418;2023-02-22T12:31:26;10.93;;;10.33;;
24259;SDS011;12384;48.112;18.418;2023-02-22T12:34:03;10.40;;;9.80;;
24259;SDS011;12384;48.112;18.418;2023-02-22T12:36:39;9.70;;;9.20;;
24259;SDS011;12384;48.112;18.418;2023-02-22T12:39:22;10.27;;;9.67;;
24259;SDS011;12384;48.112;18.418;2023-02-22T12:41:54;9.77;;;9.20;;
24259;SDS011;12384;48.112;18.418;2023-02-22T12:44:25;10.60;;;10.00;;
24259;SDS011;12384;48.112;18.418;2023-02-22T12:46:57;9.50;;;9.00;;
24259;SDS011;12384;48.112;18.418;2023-02-22T12:49:32;9.97;;;9.27;;
24259;SDS011;12384;48.112;18.418;2023-02-22T12:52:20;9.40;;;8.90;;
24259;SDS011;12384;48.112;18.418;2023-02-22T12:55:03;9.40;;;8.90;;
24259;SDS011;12384;48.112;18.418;2023-02-22T12:57:39;9.93;;;9.43;;
24259;SDS011;12384;48.112;18.418;2023-02-22T13:02:46;9.83;;;9.33;;
24259;SDS011;12384;48.112;18.418;2023-02-22T13:05:25;10.30;;;9.70;;
24259;SDS011;12384;48.112;18.418;2023-02-22T13:08:02;9.60;;;9.10;;
24259;SDS011;12384;48.112;18.418;2023-02-22T13:10:53;9.50;;;9.00;;
24259;SDS011;12384;48.112;18.418;2023-02-22T13:13:32;9.53;;;9.03;;
24259;SDS011;12384;48.112;18.418;2023-02-22T13:16:09;9.30;;;8.80;;
24259;SDS011;12384;48.112;18.418;2023-02-22T13:18:49;9.77;;;9.17;;
24259;SDS011;12384;48.112;18.418;2023-02-22T13:21:26;9.30;;;8.80;;
24259;SDS011;12384;48.112;18.418;2023-02-22T13:24:03;10.20;;;9.60;;
24259;SDS011;12384;48.112;18.418;2023-02-22T13:26:40;9.50;;;9.00;;
24259;SDS011;12384;48.112;18.418;2023-02-22T13:29:16;9.83;;;9.33;;
24259;SDS011;12384;48.112;18.418;2023-02-22T13:31:52;9.83;;;9.23;;
24259;SDS011;12384;48.112;18.418;2023-02-22T13:34:37;10.80;;;10.20;;
24259;SDS011;12384;48.112;18.418;2023-02-22T13:37:22;10.87;;;10.27;;
24259;SDS011;12384;48.112;18.418;2023-02-22T13:40:16;10.60;;;10.00;;
24259;SDS011;12384;48.112;18.418;2023-02-22T13:42:57;10.80;;;10.20;;
24259;SDS011;12384;48.112;18.418;2023-02-22T13:45:51;10.93;;;10.33;;
24259;SDS011;12384;48.112;18.418;2023-02-22T13:51:32;9.63;;;9.13;;
24259;SDS011;12384;48.112;18.418;2023-02-22T13:54:16;10.30;;;9.70;;
24259;SDS011;12384;48.112;18.418;2023-02-22T13:56:55;9.57;;;9.07;;
24259;SDS011;12384;48.112;18.418;2023-02-22T13:59:25;9.70;;;9.10;;
24259;SDS011;12384;48.112;18.418;2023-02-22T14:01:56;10.00;;;9.50;;
24259;SDS011;12384;48.112;18.418;2023-02-22T14:13:20;9.73;;;9.13;;
24259;SDS011;12384;48.112;18.418;2023-02-22T14:18:48;10.07;;;9.57;;
24259;SDS011;12384;48.112;18.418;2023-02-22T14:21:32;9.60;;;9.10;;
24259;SDS011;12384;48.112;18.418;2023-02-22T14:24:05;8.93;;;8.53;;
24259;SDS011;12384;48.112;18.418;2023-02-22T14:26:37;9.63;;;9.10;;
24259;SDS011;12384;48.112;18.418;2023-02-22T14:29:16;9.80;;;9.30;;
24259;SDS011;12384;48.112;18.418;2023-02-22T14:34:42;9.43;;;8.93;;
24259;SDS011;12384;48.112;18.418;2023-02-22T14:37:17;9.73;;;9.17;;
24259;SDS011;12384;48.112;18.418;2023-02-22T14:39:50;9.70;;;9.10;;
24259;SDS011;12384;48.112;18.418;2023-02-22T14:42:27;10.10;;;9.50;;
24259;SDS011;12384;48.112;18.418;2023-02-22T14:45:00;10.73;;;10.10;;
24259;SDS011;12384;48.112;18.418;2023-02-22T14:47:43;10.57;;;9.97;;
24259;SDS011;12384;48.112;18.418;2023-02-22T14:50:16;11.73;;;11.03;;
24259;SDS011;12384;48.112;18.418;2023-02-22T14:52:54;11.53;;;10.73;;
24259;SDS011;12384;48.112;18.418;2023-02-22T14:55:28;11.93;;;11.17;;
24259;SDS011;12384;48.112;18.418;2023-02-22T14:58:00;10.20;;;9.60;;
24259;SDS011;12384;48.112;18.418;2023-02-22T15:00:37;11.47;;;10.77;;
24259;SDS011;12384;48.112;18.418;2023-02-22T15:03:16;10.40;;;9.80;;
24259;SDS011;12384;48.112;18.418;2023-02-22T15:05:46;10.47;;;9.87;;
24259;SDS011;12384;48.112;18.418;2023-02-22T15:08:15;10.43;;;9.83;;
24259;SDS011;12384;48.112;18.418;2023-02-22T15:10:53;10.57;;;9.87;;
24259;SDS011;12384;48.112;18.418;2023-02-22T15:13:22;10.60;;;9.80;;
24259;SDS011;12384;48.112;18.418;2023-02-22T15:15:55;10.90;;;10.20;;